Terminal Aerodrome Forecast
Issued by NWS Houston/Galveston TX

Home | Current Version | Previous Version | Text Only | Print | Product List | Glossary On
Versions: 1 2 3 4 5 6 7 8 9 10 11 12 13 14 15 16 17 18 19 20 21 22 23 24 25 26 27 28 29 30 31 32
000
FTUS44 KHGX 260204 AAA
TAFHOU
TAF AMD
KHOU 260204Z 2602/2624 04007KT 6SM BR SCT005 OVC015
     FM260500 01004KT 2SM BR OVC005
     FM261500 02008KT P6SM OVC015
     FM261900 05008KT P6SM SCT015=

USA.gov is the U.S. government's official web portal to all federal, state and local government web resources and services.